메인 페이지
METAR-TAF:

METAR-TAF

공항 :

풀코보 국제공항

상트페테르부르크, 러시아

위도: 59-58N, 경도: 030-18E, 고도: 4m

현재 날씨관측

예보는 31분 전, 11:30시(UTC)에 발표되었습니다.
북북서4kt풍과 풍을 오가는
온도 9°C
습도 81%
기압 1020 hPa
시정 10km 이상
고도 1700ft 상공 구름 보통

METAR: ULLI 201130Z 33002MPS 280V010 9999 SCT017 09/06 Q1020 R88/090060 NOSIG

시각: 15:01 (12:01 UTC)

예보

예보는 1 시간 6분 전, 10:55시(UTC)에 발표되었습니다.
예보 대상 시간: 20일 12시부터 21일 12시까지 (UTC)
6kt
시정 10km 이상
고도 1100ft 상공 구름 보통
고도 2000ft 상공 구름 많음
일시적
20일 12시부터 20일 15시까지 (UTC)
시정: 3100m
고도 1100ft 상공 구름 많음
고도 2000ft 상공 구름 많음, 적란운.
약한소나기, 박무
일시적
20일 15시부터 20일 18시까지 (UTC)
여러 방향의 바람 2kt
시정: 3100m
박무
전환 중
20일 18시부터 20일 20시까지 (UTC)
남서6kt
시정: 3100m
박무
일시적
20일 18시부터 21일 06시까지 (UTC)
시정: 0300m
고도 200ft 상공
안개
전환 중
21일 06시부터 21일 08시까지 (UTC)
서남서10kt, 순간 최대 풍속 19kt
시정 10km 이상

TAF: ULLI 201055Z 2012/2112 26003MPS 9999 SCT011 BKN020 TEMPO 2012/2015 3100 -SHRA BR BKN011 BKN020CB TEMPO 2015/2018 VRB01MPS 3100 BR BECMG 2018/2020 23003MPS 3100 BR TEMPO 2018/2106 0300 FG VV002 BECMG 2106/2108 24005G10MPS 9999 NSW

4,000개 이상의 공항 관측 자료 및 예보 (METAR 및 TAF 보고).

지도상에서 검색 가능한 기상관측소가 노란 점과 빨간 점으로 표시되어 있습니다.

기상관측소 명을 보려면 표시 위로 마우스를 이동하세요.

날씨 관측과 예보를 보려면 클릭하세요.

지도 변경 : 확대하려면 엑스 표시가 있는 녹색 버튼, 축소하려면 빼기 표시가 있는 녹색 버튼, 다음 페이지의 지도를 보려면 녹색 화살표를 클릭하세요.


METAR-TAF: